Time;durP1;ratioP1;P1;durP2;ratioP2;P2;SDS_P1;SDS_P2;PMS_P1;PMS_P2;Temp;Humidity;BMP_temperature;BMP_pressure;BME280_temperature;BME280_humidity;BME280_pressure;Samples;Min_cycle;Max_cycle;Signal;HPM_P1;HPM_P2
2022/06/18 00:00:04;;;;;;;29.52;26.63;;;;;;;14.00;100.00;99755.38;2108459;28;20586;-73
2022/06/18 00:01:13;;;;;;;30.73;27.42;;;;;;;13.93;100.00;99752.31;2108328;28;20219;-73
2022/06/18 00:02:18;;;;;;;30.25;27.25;;;;;;;13.94;100.00;99753.91;2107897;28;20205;-73
2022/06/18 00:03:20;;;;;;;30.73;27.38;;;;;;;13.92;100.00;99752.63;2107739;28;20283;-74
2022/06/18 00:04:23;;;;;;;30.80;27.73;;;;;;;13.91;100.00;99751.81;2107057;28;20577;-73
2022/06/18 00:05:24;;;;;;;30.25;27.23;;;;;;;13.89;100.00;99747.84;2107834;28;20251;-73
2022/06/18 00:06:25;;;;;;;30.15;27.13;;;;;;;13.88;100.00;99754.31;2107779;28;20214;-73
2022/06/18 00:07:27;;;;;;;30.63;27.35;;;;;;;13.87;100.00;99745.47;2107511;28;20304;-73
2022/06/18 00:08:30;;;;;;;31.58;27.35;;;;;;;13.88;100.00;99747.03;2107645;28;20190;-73
2022/06/18 00:09:34;;;;;;;30.67;27.52;;;;;;;13.86;100.00;99754.59;2108241;28;20235;-73
2022/06/18 00:10:34;;;;;;;30.77;27.65;;;;;;;13.84;100.00;99751.44;2108234;28;20189;-73
2022/06/18 00:14:16;;;;;;;30.88;27.58;;;;;;;13.73;100.00;99750.06;2107823;28;20568;-73
2022/06/18 00:15:20;;;;;;;30.65;27.45;;;;;;;13.70;100.00;99745.28;2107814;28;20319;-73
2022/06/18 00:16:25;;;;;;;31.60;27.70;;;;;;;13.69;100.00;99754.44;2108186;28;20239;-73
2022/06/18 00:17:26;;;;;;;30.88;27.98;;;;;;;13.64;100.00;99741.94;2107390;28;20221;-73
2022/06/18 00:18:28;;;;;;;30.63;27.57;;;;;;;13.67;100.00;99751.25;2107578;28;20272;-73
2022/06/18 00:19:28;;;;;;;31.17;27.85;;;;;;;13.64;100.00;99749.16;2108399;28;20197;-72
2022/06/18 00:20:32;;;;;;;30.53;27.40;;;;;;;13.65;100.00;99748.88;2108180;28;20193;-73
2022/06/18 00:21:34;;;;;;;31.10;27.92;;;;;;;13.65;100.00;99748.09;2107878;28;20566;-73
2022/06/18 00:22:38;;;;;;;33.28;27.83;;;;;;;13.61;100.00;99745.19;2108119;28;20193;-73
2022/06/18 00:23:40;;;;;;;35.13;28.65;;;;;;;13.56;100.00;99743.41;2108110;28;20655;-73
2022/06/18 00:24:41;;;;;;;30.63;27.03;;;;;;;13.57;100.00;99736.97;2108357;28;20534;-73
2022/06/18 00:25:45;;;;;;;32.55;28.45;;;;;;;13.55;100.00;99738.34;2108108;28;20185;-73
2022/06/18 00:26:48;;;;;;;31.95;28.67;;;;;;;13.51;100.00;99743.50;2107668;28;20193;-73
2022/06/18 00:27:49;;;;;;;37.03;28.48;;;;;;;13.52;100.00;99747.78;2108056;28;20189;-73
2022/06/18 00:28:51;;;;;;;31.13;27.80;;;;;;;13.49;100.00;99750.28;2107328;28;20224;-73
2022/06/18 00:29:53;;;;;;;30.70;27.67;;;;;;;13.45;100.00;99750.06;2107223;28;20213;-73
2022/06/18 00:30:55;;;;;;;31.42;28.08;;;;;;;13.41;100.00;99749.06;2107411;28;20284;-73
2022/06/18 00:31:56;;;;;;;30.85;27.70;;;;;;;13.37;100.00;99750.75;2099053;28;20564;-73
2022/06/18 00:32:57;;;;;;;31.37;28.07;;;;;;;13.33;100.00;99749.75;2098963;28;20397;-74
2022/06/18 00:33:58;;;;;;;30.75;27.40;;;;;;;13.33;100.00;99755.13;2107433;28;20186;-73
2022/06/18 00:35:02;;;;;;;30.93;27.73;;;;;;;13.35;100.00;99750.25;2107317;28;20196;-73
2022/06/18 00:36:07;;;;;;;31.58;28.63;;;;;;;13.32;100.00;99748.19;2107005;28;20189;-73
2022/06/18 00:37:15;;;;;;;31.23;27.88;;;;;;;13.29;100.00;99746.91;2108118;28;20174;-73
2022/06/18 00:38:23;;;;;;;31.45;27.77;;;;;;;13.27;100.00;99745.56;2107320;28;20753;-73
2022/06/18 00:39:25;;;;;;;31.85;28.52;;;;;;;13.27;100.00;99742.91;2107317;28;20178;-73
2022/06/18 00:40:28;;;;;;;31.90;28.67;;;;;;;13.31;100.00;99737.75;2107392;28;20224;-73
2022/06/18 00:41:29;;;;;;;31.48;28.13;;;;;;;13.33;100.00;99746.28;2108143;28;20186;-73
2022/06/18 00:42:32;;;;;;;31.42;28.13;;;;;;;13.30;100.00;99742.31;2107286;28;20286;-72
2022/06/18 00:43:39;;;;;;;30.55;27.55;;;;;;;13.34;100.00;99743.31;2099079;28;20583;-73
2022/06/18 00:44:44;;;;;;;30.75;27.75;;;;;;;13.34;100.00;99742.50;2107441;28;20556;-73
2022/06/18 00:45:46;;;;;;;34.20;27.73;;;;;;;13.31;100.00;99740.44;2107266;28;20190;-73
2022/06/18 00:47:03;;;;;;;31.10;28.00;;;;;;;13.31;100.00;99737.75;2107577;28;20211;-73
2022/06/18 00:48:08;;;;;;;32.17;28.77;;;;;;;13.27;100.00;99742.91;2107952;28;20201;-73
2022/06/18 00:49:15;;;;;;;30.42;26.98;;;;;;;13.28;100.00;99744.47;2107733;27;20197;-73
2022/06/18 00:50:24;;;;;;;30.38;27.42;;;;;;;13.29;100.00;99751.44;2107248;28;20239;-73
2022/06/18 00:51:29;;;;;;;31.42;28.05;;;;;;;13.27;100.00;99742.91;2099408;28;20237;-73
2022/06/18 00:52:36;;;;;;;31.42;28.08;;;;;;;13.29;100.00;99746.91;2099239;28;20242;-73
2022/06/18 00:53:42;;;;;;;34.22;29.88;;;;;;;13.30;100.00;99742.31;2107357;28;20174;-72
2022/06/18 00:54:46;;;;;;;31.55;28.27;;;;;;;13.30;100.00;99747.69;2107218;28;20231;-73
2022/06/18 00:55:55;;;;;;;34.33;27.75;;;;;;;13.32;100.00;99740.13;2107449;28;20243;-73
2022/06/18 00:57:01;;;;;;;30.88;27.60;;;;;;;13.35;100.00;99744.09;2107014;28;20225;-73
2022/06/18 00:58:08;;;;;;;31.10;27.88;;;;;;;13.33;100.00;99731.00;2107357;28;20227;-73
2022/06/18 00:59:13;;;;;;;30.23;27.25;;;;;;;13.34;100.00;99732.59;2107176;28;20580;-73
2022/06/18 01:00:17;;;;;;;32.25;28.58;;;;;;;13.37;100.00;99740.03;2099531;28;20248;-73
2022/06/18 01:01:22;;;;;;;30.63;27.52;;;;;;;13.40;100.00;99749.38;2107225;28;20189;-73
2022/06/18 01:02:30;;;;;;;30.20;27.00;;;;;;;13.37;100.00;99742.69;2107808;28;20197;-74
2022/06/18 01:03:35;;;;;;;33.15;28.13;;;;;;;13.38;100.00;99744.31;2107867;28;20174;-73
2022/06/18 01:04:42;;;;;;;30.52;26.55;;;;;;;13.37;100.00;99742.69;2106903;28;20702;-74
2022/06/18 01:05:43;;;;;;;30.23;27.20;;;;;;;13.38;100.00;99744.31;2107097;28;20683;-72
2022/06/18 01:06:44;;;;;;;29.33;26.27;;;;;;;13.36;100.00;99735.75;2106876;28;20217;-73
2022/06/18 01:07:48;;;;;;;30.33;27.35;;;;;;;13.38;100.00;99738.97;2107362;28;20201;-73
2022/06/18 01:08:56;;;;;;;30.80;27.35;;;;;;;13.37;100.00;99745.38;2107068;28;20217;-73
2022/06/18 01:09:58;;;;;;;29.05;26.20;;;;;;;13.37;100.00;99742.69;2107087;28;20198;-73
2022/06/18 01:11:03;;;;;;;30.33;26.60;;;;;;;13.31;100.00;99738.56;2107261;28;20652;-73
2022/06/18 01:12:04;;;;;;;30.25;27.20;;;;;;;13.30;100.00;99742.31;2107021;28;20189;-73
2022/06/18 01:13:11;;;;;;;30.65;27.52;;;;;;;13.28;100.00;99742.59;2098713;28;20316;-73
2022/06/18 01:14:15;;;;;;;29.95;27.08;;;;;;;13.31;100.00;99743.13;2099470;28;20190;-74
2022/06/18 01:15:20;;;;;;;30.27;27.52;;;;;;;13.26;100.00;99747.47;2106978;28;20751;-73
2022/06/18 01:16:24;;;;;;;30.17;27.15;;;;;;;13.21;100.00;99742.22;2107018;28;20198;-73
2022/06/18 01:17:26;;;;;;;30.65;27.40;;;;;;;13.16;100.00;99726.19;2107060;28;20738;-73
2022/06/18 01:18:29;;;;;;;31.08;27.77;;;;;;;13.18;100.00;99747.31;2106984;28;20189;-73
2022/06/18 01:19:32;;;;;;;32.45;27.33;;;;;;;13.11;100.00;99742.34;2099284;28;20201;-73
2022/06/18 01:20:39;;;;;;;29.52;26.75;;;;;;;13.08;100.00;99745.63;2098873;28;20197;-73
2022/06/18 01:21:57;;;;;;;30.27;27.08;;;;;;;13.02;100.00;99734.19;2099681;28;20230;-73
2022/06/18 01:23:08;;;;;;;35.88;27.45;;;;;;;12.99;100.00;99742.84;2107005;28;20193;-73
2022/06/18 01:24:15;;;;;;;30.23;27.23;;;;;;;12.95;100.00;99738.38;2107197;28;20182;-73
2022/06/18 01:25:19;;;;;;;36.25;28.23;;;;;;;12.89;100.00;99740.34;2106974;28;20657;-73
2022/06/18 01:26:23;;;;;;;30.80;27.67;;;;;;;12.84;100.00;99735.06;2107049;28;20193;-73
2022/06/18 01:27:26;;;;;;;34.95;28.98;;;;;;;12.82;100.00;99734.56;2106913;28;20728;-73
2022/06/18 01:28:27;;;;;;;41.70;28.27;;;;;;;12.80;100.00;99734.06;2098771;28;20708;-73
2022/06/18 01:29:29;;;;;;;32.90;27.52;;;;;;;12.77;100.00;99739.19;2098585;28;20234;-73
2022/06/18 01:30:35;;;;;;;28.75;25.70;;;;;;;12.76;100.00;99735.72;2106872;28;20201;-73
2022/06/18 01:31:39;;;;;;;30.58;27.25;;;;;;;12.73;100.00;99742.47;2106860;28;20217;-73
2022/06/18 01:32:40;;;;;;;28.95;26.23;;;;;;;12.70;100.00;99743.06;2106896;28;20222;-73
2022/06/18 01:33:42;;;;;;;33.53;26.70;;;;;;;12.65;100.00;99737.00;2106820;28;20240;-73
2022/06/18 01:34:44;;;;;;;33.08;27.92;;;;;;;12.61;100.00;99736.78;2098725;28;20681;-73
2022/06/18 01:35:48;;;;;;;30.15;27.00;;;;;;;12.57;100.00;99729.63;2098579;28;20194;-73
2022/06/18 01:36:53;;;;;;;32.20;26.25;;;;;;;12.54;100.00;99730.22;2098734;28;20214;-73
2022/06/18 01:37:57;;;;;;;35.38;27.13;;;;;;;12.50;100.00;99727.31;2106307;28;20803;-73
2022/06/18 01:39:04;;;;;;;31.33;28.02;;;;;;;12.44;100.00;99723.16;2098607;28;20198;-73
2022/06/18 01:40:12;;;;;;;31.63;28.23;;;;;;;12.44;100.00;99723.94;2098445;28;20660;-73
2022/06/18 01:42:41;;;;;;;35.30;28.13;;;;;;;12.38;100.00;99719.75;2093810;28;20198;-73
2022/06/18 01:43:43;;;;;;;31.75;28.10;;;;;;;12.38;100.00;99716.28;2098750;28;20594;-73
2022/06/18 01:44:48;;;;;;;30.65;27.40;;;;;;;12.38;100.00;99713.59;2098492;28;20193;-73
2022/06/18 01:45:56;;;;;;;31.10;27.83;;;;;;;12.38;100.00;99725.09;2105796;28;20209;-73
2022/06/18 01:47:05;;;;;;;34.13;28.55;;;;;;;12.43;100.00;99734.94;2098476;28;20302;-73
2022/06/18 01:48:14;;;;;;;32.05;28.50;;;;;;;12.52;100.00;99729.72;2098510;28;20656;-73
2022/06/18 01:49:20;;;;;;;33.35;28.25;;;;;;;12.55;100.00;99727.25;2091103;28;20233;-73
2022/06/18 01:50:23;;;;;;;32.40;27.52;;;;;;;12.56;100.00;99725.38;2090702;28;20191;-73
2022/06/18 01:51:30;;;;;;;31.13;27.58;;;;;;;12.58;100.00;99725.84;2097461;28;20349;-73
2022/06/18 01:52:35;;;;;;;30.50;27.30;;;;;;;12.64;100.00;99733.53;2090994;28;20227;-73
2022/06/18 01:53:46;;;;;;;35.28;29.08;;;;;;;12.67;100.00;99732.13;2099526;28;20184;-73
2022/06/18 01:54:48;;;;;;;31.92;28.60;;;;;;;12.69;100.00;99727.31;2106531;28;20523;-74
2022/06/18 01:55:56;;;;;;;35.70;28.02;;;;;;;12.70;100.00;99729.69;2098337;28;20197;-73
2022/06/18 01:56:59;;;;;;;32.03;28.52;;;;;;;12.68;100.00;99726.50;2098412;28;20723;-73
2022/06/18 01:58:05;;;;;;;30.80;27.60;;;;;;;12.69;100.00;99724.63;2106570;28;20561;-73
2022/06/18 01:59:10;;;;;;;32.38;29.02;;;;;;;12.69;100.00;99727.31;2106035;28;20189;-73
2022/06/18 02:00:17;;;;;;;35.60;27.67;;;;;;;12.68;100.00;99731.03;2099357;28;20194;-72
2022/06/18 02:01:28;;;;;;;33.88;27.15;;;;;;;12.64;100.00;99727.38;2106732;28;20206;-73
2022/06/18 02:02:31;;;;;;;31.35;27.92;;;;;;;12.62;100.00;99725.00;2106286;28;20194;-73
2022/06/18 02:03:31;;;;;;;30.77;27.58;;;;;;;12.58;100.00;99723.97;2090243;28;20210;-73
2022/06/18 02:04:35;;;;;;;30.77;27.67;;;;;;;12.63;100.00;99729.25;2090071;28;20700;-73
2022/06/18 02:05:38;;;;;;;33.70;27.88;;;;;;;12.61;100.00;99730.66;2098356;28;20195;-73
2022/06/18 02:06:39;;;;;;;30.35;26.90;;;;;;;12.64;100.00;99735.41;2104484;28;20225;-73
2022/06/18 02:07:43;;;;;;;33.72;27.10;;;;;;;12.64;100.00;99724.69;2098258;28;20221;-73
2022/06/18 02:08:44;;;;;;;32.85;26.92;;;;;;;12.62;100.00;99721.53;2106600;28;20722;-73
2022/06/18 02:09:48;;;;;;;30.75;26.55;;;;;;;12.60;100.00;99727.19;2106809;28;20560;-73
2022/06/18 02:10:55;;;;;;;30.80;27.27;;;;;;;12.58;100.00;99715.94;2106554;28;20236;-73
2022/06/18 02:12:00;;;;;;;31.90;26.92;;;;;;;12.55;100.00;99716.53;2106614;28;20188;-73
2022/06/18 02:13:02;;;;;;;34.67;28.17;;;;;;;12.53;100.00;99716.03;2106714;28;20714;-72
2022/06/18 02:14:07;;;;;;;30.08;26.88;;;;;;;12.51;100.00;99717.41;2107242;28;20246;-73
2022/06/18 02:15:10;;;;;;;29.92;26.70;;;;;;;12.52;100.00;99719.00;2106509;28;20297;-73
2022/06/18 02:16:16;;;;;;;31.42;28.00;;;;;;;12.53;100.00;99712.56;2098514;28;20232;-73
2022/06/18 02:17:18;;;;;;;31.13;27.85;;;;;;;12.54;100.00;99719.50;2099046;28;20206;-73
2022/06/18 02:18:22;;;;;;;30.88;26.95;;;;;;;12.50;100.00;99721.16;2106664;28;20212;-73
2022/06/18 02:19:27;;;;;;;31.80;26.77;;;;;;;12.52;100.00;99717.13;2106858;28;20628;-73
2022/06/18 02:20:30;;;;;;;30.48;27.30;;;;;;;12.51;100.00;99720.91;2098245;28;20281;-73
2022/06/18 02:21:35;;;;;;;31.17;27.88;;;;;;;12.50;100.00;99710.47;2106242;28;20608;-73
2022/06/18 02:22:39;;;;;;;31.20;27.98;;;;;;;12.46;100.00;99715.63;2106453;28;20237;-73
2022/06/18 02:23:42;;;;;;;30.75;27.67;;;;;;;12.47;100.00;99711.84;2098853;28;20537;-73
2022/06/18 02:24:43;;;;;;;34.08;27.08;;;;;;;12.49;100.00;99716.91;2106592;28;20197;-73
2022/06/18 02:25:49;;;;;;;29.27;26.38;;;;;;;12.44;100.00;99715.91;2106483;28;20190;-73
2022/06/18 02:26:52;;;;;;;34.67;28.00;;;;;;;12.45;100.00;99717.50;2098513;28;20194;-72
2022/06/18 02:27:57;;;;;;;29.55;26.75;;;;;;;12.47;100.00;99713.72;2106496;28;20201;-73
2022/06/18 02:29:00;;;;;;;29.75;26.67;;;;;;;12.42;100.00;99707.38;2098590;28;20209;-73
2022/06/18 02:30:01;;;;;;;31.67;27.55;;;;;;;12.46;100.00;99712.94;2106527;28;20193;-73
2022/06/18 02:31:07;;;;;;;31.00;27.73;;;;;;;12.47;100.00;99724.44;2106442;28;20649;-73
2022/06/18 02:32:17;;;;;;;35.35;27.48;;;;;;;12.43;100.00;99713.53;2098713;28;20234;-73
2022/06/18 02:33:32;;;;;;;34.35;26.88;;;;;;;12.47;100.00;99716.41;2106504;28;20182;-73
2022/06/18 02:34:33;;;;;;;31.33;27.30;;;;;;;12.42;100.00;99718.09;2099924;28;20668;-73
2022/06/18 02:35:36;;;;;;;37.30;28.03;;;;;;;12.41;100.00;99718.34;2098097;28;20279;-73
2022/06/18 02:36:40;;;;;;;31.55;28.05;;;;;;;12.38;100.00;99721.63;2106159;28;20225;-73
2022/06/18 02:37:43;;;;;;;30.58;27.20;;;;;;;12.40;100.00;99720.25;2106384;28;20202;-73
2022/06/18 02:38:46;;;;;;;32.00;27.20;;;;;;;12.36;100.00;99723.81;2106345;28;20709;-73
2022/06/18 02:39:59;;;;;;;29.98;27.10;;;;;;;12.41;100.00;99724.50;2106491;28;20201;-73
2022/06/18 02:41:00;;;;;;;30.73;27.52;;;;;;;12.40;100.00;99719.44;2106800;28;20193;-73
2022/06/18 02:42:05;;;;;;;30.27;27.17;;;;;;;12.44;100.00;99720.47;2106693;28;20205;-73
2022/06/18 02:43:06;;;;;;;31.08;27.98;;;;;;;12.42;100.00;99717.28;2098522;28;20205;-73
2022/06/18 02:44:08;;;;;;;30.73;27.52;;;;;;;12.42;100.00;99715.41;2106297;28;20255;-73
2022/06/18 02:45:11;;;;;;;33.03;27.48;;;;;;;12.43;100.00;99716.22;2106482;28;20177;-73
2022/06/18 02:46:14;;;;;;;30.45;27.35;;;;;;;12.43;100.00;99716.22;2107036;28;20185;-73
2022/06/18 02:47:16;;;;;;;31.40;28.17;;;;;;;12.40;100.00;99714.88;2107081;28;20189;-73
2022/06/18 02:48:24;;;;;;;33.70;28.48;;;;;;;12.40;100.00;99714.88;2107048;28;20177;-73
2022/06/18 02:49:25;;;;;;;30.38;27.02;;;;;;;12.40;100.00;99716.78;2106350;28;20635;-73
2022/06/18 02:50:30;;;;;;;30.17;27.03;;;;;;;12.38;100.00;99710.94;2106341;28;20195;-73
2022/06/18 02:51:32;;;;;;;30.35;27.15;;;;;;;12.37;100.00;99715.47;2105938;28;20237;-73
2022/06/18 02:52:38;;;;;;;29.38;26.38;;;;;;;12.36;100.00;99713.09;2098150;28;20247;-73
2022/06/18 02:53:40;;;;;;;29.77;26.63;;;;;;;12.35;100.00;99715.00;2098829;28;20186;-73
2022/06/18 02:54:41;;;;;;;31.40;28.10;;;;;;;12.33;100.00;99714.47;2098216;28;20203;-73
2022/06/18 02:55:43;;;;;;;30.75;26.60;;;;;;;12.35;100.00;99719.53;2098051;28;20190;-73
2022/06/18 02:56:47;;;;;;;30.05;27.05;;;;;;;12.36;100.00;99715.78;2106291;28;20216;-73
2022/06/18 02:57:51;;;;;;;29.35;26.45;;;;;;;12.37;100.00;99710.13;2098220;28;20679;-73
2022/06/18 02:58:54;;;;;;;29.40;26.50;;;;;;;12.38;100.00;99716.28;2106382;28;20695;-73
2022/06/18 02:59:56;;;;;;;29.75;25.95;;;;;;;12.37;100.00;99712.81;2106332;28;20290;-73
2022/06/18 03:01:00;;;;;;;29.25;26.25;;;;;;;12.36;100.00;99711.22;2098205;28;20193;-73
2022/06/18 03:02:01;;;;;;;29.42;25.98;;;;;;;12.36;100.00;99713.09;2098424;28;20246;-73
2022/06/18 03:03:04;;;;;;;29.47;26.10;;;;;;;12.33;100.00;99714.47;2097997;28;20198;-73
2022/06/18 03:04:04;;;;;;;29.83;26.88;;;;;;;12.31;100.00;99711.28;2097882;28;20190;-73
2022/06/18 03:05:09;;;;;;;29.43;26.33;;;;;;;12.31;100.00;99710.50;2106436;28;20185;-73
2022/06/18 03:06:13;;;;;;;30.13;25.95;;;;;;;12.28;100.00;99711.09;2105760;28;20284;-73
2022/06/18 03:07:14;;;;;;;29.15;26.25;;;;;;;12.21;100.00;99708.78;2098395;28;20182;-73
2022/06/18 03:08:15;;;;;;;29.73;26.42;;;;;;;12.29;100.00;99713.47;2106315;28;20205;-73
2022/06/18 03:09:17;;;;;;;28.77;25.87;;;;;;;12.27;100.00;99714.84;2106616;28;20627;-73
2022/06/18 03:13:01;;;;;;;28.42;25.52;;;;;;;12.29;100.00;99708.13;2106334;28;20189;-73
2022/06/18 03:14:05;;;;;;;29.13;26.30;;;;;;;12.28;100.00;99709.19;2098455;28;20217;-73
2022/06/18 03:15:06;;;;;;;29.83;26.33;;;;;;;12.33;100.00;99714.47;2097942;28;20198;-73
2022/06/18 03:16:10;;;;;;;28.80;25.75;;;;;;;12.33;100.00;99703.75;2106382;28;20197;-73
2022/06/18 03:17:11;;;;;;;29.85;26.73;;;;;;;12.34;100.00;99712.59;2106254;28;20300;-73
2022/06/18 03:18:13;;;;;;;28.87;25.70;;;;;;;12.30;100.00;99712.38;2098197;28;20198;-73
2022/06/18 03:19:26;;;;;;;28.38;25.48;;;;;;;12.32;100.00;99710.19;2106252;28;20226;-73
2022/06/18 03:20:36;;;;;;;29.15;26.23;;;;;;;12.30;100.00;99704.34;2099722;28;20675;-72
2022/06/18 03:21:39;;;;;;;29.98;27.13;;;;;;;12.28;100.00;99706.53;2105903;28;20247;-72
2022/06/18 03:22:41;;;;;;;29.63;26.55;;;;;;;12.30;100.00;99709.69;2106272;28;20744;-73
2022/06/18 03:23:42;;;;;;;30.83;27.15;;;;;;;12.31;100.00;99708.59;2097878;28;20682;-73
2022/06/18 03:24:44;;;;;;;29.10;26.00;;;;;;;12.28;100.00;99706.53;2106245;28;20198;-73
2022/06/18 03:25:47;;;;;;;28.63;25.77;;;;;;;12.28;100.00;99705.72;2097947;28;20222;-73
2022/06/18 03:26:49;;;;;;;29.52;26.35;;;;;;;12.28;100.00;99711.88;2106248;28;20651;-73
2022/06/18 03:27:50;;;;;;;29.35;26.38;;;;;;;12.37;100.00;99712.81;2098039;28;20202;-73
2022/06/18 03:28:53;;;;;;;30.03;26.80;;;;;;;12.36;100.00;99711.22;2098118;28;20756;-73
2022/06/18 03:29:54;;;;;;;28.23;25.60;;;;;;;12.36;100.00;99711.22;2106227;28;20575;-73
2022/06/18 03:30:58;;;;;;;29.42;25.95;;;;;;;12.36;100.00;99713.91;2098221;28;20202;-73
2022/06/18 03:32:00;;;;;;;28.90;25.42;;;;;;;12.39;100.00;99713.31;2106173;28;20189;-73
2022/06/18 03:33:05;;;;;;;27.98;25.08;;;;;;;12.42;100.00;99712.75;2098496;28;20198;-73
2022/06/18 03:34:07;;;;;;;27.52;24.95;;;;;;;12.44;100.00;99715.91;2106137;28;20655;-73
2022/06/18 03:35:10;;;;;;;27.92;25.17;;;;;;;12.46;100.00;99707.59;2106129;28;20202;-73
2022/06/18 03:36:11;;;;;;;28.58;25.67;;;;;;;12.51;100.00;99712.06;2105836;28;20632;-73
2022/06/18 03:37:13;;;;;;;26.80;24.35;;;;;;;12.52;100.00;99711.00;2106250;28;20197;-73
2022/06/18 03:38:15;;;;;;;27.38;24.77;;;;;;;12.45;100.00;99706.78;2097993;28;20198;-73
2022/06/18 03:39:18;;;;;;;28.55;25.52;;;;;;;12.47;100.00;99709.19;2098103;28;20202;-72
2022/06/18 03:40:20;;;;;;;27.88;24.85;;;;;;;12.49;100.00;99708.88;2106178;28;20663;-72
2022/06/18 03:41:23;;;;;;;28.95;25.90;;;;;;;12.48;100.00;99704.63;2106111;28;20189;-73
2022/06/18 03:42:25;;;;;;;28.30;25.35;;;;;;;12.52;100.00;99711.00;2098152;28;20194;-73
2022/06/18 03:43:27;;;;;;;27.60;25.07;;;;;;;12.52;100.00;99705.63;2097999;28;20218;-73
2022/06/18 03:44:31;;;;;;;28.45;25.52;;;;;;;12.51;100.00;99714.72;2106138;28;20566;-73
2022/06/18 03:45:36;;;;;;;28.65;25.75;;;;;;;12.53;100.00;99707.22;2098181;28;20277;-72
2022/06/18 03:46:39;;;;;;;28.65;25.85;;;;;;;12.51;100.00;99712.06;2106380;28;20557;-73
2022/06/18 03:47:47;;;;;;;28.67;25.88;;;;;;;12.50;100.00;99708.56;2098732;28;20264;-73
2022/06/18 03:48:53;;;;;;;28.35;25.58;;;;;;;12.54;100.00;99708.81;2106177;28;20189;-73
2022/06/18 03:49:58;;;;;;;29.73;26.63;;;;;;;12.56;100.00;99711.97;2098822;28;20190;-73
2022/06/18 03:50:59;;;;;;;29.10;26.17;;;;;;;12.57;100.00;99706.31;2105745;28;20229;-73
2022/06/18 03:52:04;;;;;;;29.05;26.20;;;;;;;12.62;100.00;99708.13;2098426;28;20201;-73
2022/06/18 03:53:06;;;;;;;29.05;26.13;;;;;;;12.65;100.00;99710.22;2098235;28;20297;-73
2022/06/18 03:54:08;;;;;;;29.87;26.47;;;;;;;12.61;100.00;99710.03;2097729;28;20252;-73
2022/06/18 03:55:11;;;;;;;30.27;27.40;;;;;;;12.62;100.00;99705.47;2106084;28;20209;-73
2022/06/18 03:56:15;;;;;;;31.02;27.85;;;;;;;12.61;100.00;99701.19;2106776;28;20221;-73
2022/06/18 03:57:19;;;;;;;30.65;27.08;;;;;;;12.64;100.00;99706.75;2106081;28;20222;-73
2022/06/18 03:58:21;;;;;;;28.30;25.52;;;;;;;12.66;100.00;99701.09;2098014;28;20570;-73
2022/06/18 03:59:24;;;;;;;29.55;26.63;;;;;;;12.64;100.00;99703.28;2097904;28;20194;-73
2022/06/18 04:00:29;;;;;;;29.30;26.60;;;;;;;12.64;100.00;99703.28;2106247;28;20552;-73
2022/06/18 04:01:40;;;;;;;30.50;26.10;;;;;;;12.66;100.00;99696.53;2098434;28;20205;-73
2022/06/18 04:02:41;;;;;;;29.42;26.52;;;;;;;12.67;100.00;99698.13;2107697;28;20177;-73
2022/06/18 04:03:42;;;;;;;28.23;25.60;;;;;;;12.73;100.00;99707.66;2107632;28;20243;-73
2022/06/18 04:04:49;;;;;;;29.20;26.00;;;;;;;12.75;100.00;99704.69;2099882;28;20298;-73
2022/06/18 04:05:54;;;;;;;28.48;25.35;;;;;;;12.78;100.00;99706.00;2099552;28;20207;-74
2022/06/18 04:06:56;;;;;;;27.63;25.00;;;;;;;12.80;100.00;99709.97;2099500;28;20213;-73
2022/06/18 04:08:17;;;;;;;28.42;25.63;;;;;;;12.83;100.00;99703.22;2101735;28;20187;-74
2022/06/18 04:09:24;;;;;;;27.85;25.23;;;;;;;12.83;100.00;99705.91;2100584;28;20209;-73
2022/06/18 04:10:26;;;;;;;27.77;25.08;;;;;;;12.86;100.00;99703.44;2107746;28;20201;-73
2022/06/18 04:11:28;;;;;;;29.27;26.20;;;;;;;12.91;100.00;99703.34;2107531;28;20189;-73
2022/06/18 04:12:29;;;;;;;30.75;26.27;;;;;;;12.94;100.00;99708.13;2099257;28;20205;-73
2022/06/18 04:13:46;;;;;;;33.03;25.75;;;;;;;12.97;100.00;99707.53;2101217;28;20178;-73
2022/06/18 04:15:11;;;;;;;27.88;25.08;;;;;;;12.99;100.00;99709.91;2107479;28;20551;-73
2022/06/18 04:16:42;;;;;;;28.23;25.08;;;;;;;13.01;100.00;99708.50;2106113;28;20201;-73
2022/06/18 04:17:48;;;;;;;28.05;25.27;;;;;;;13.12;100.00;99711.81;2107692;28;20197;-73
2022/06/18 04:18:51;;;;;;;28.90;25.95;;;;;;;13.17;100.00;99710.91;2107598;28;20200;-73
2022/06/18 04:19:52;;;;;;;27.23;24.45;;;;;;;13.19;100.00;99706.84;2107476;28;20193;-73
2022/06/18 04:20:59;;;;;;;27.95;25.42;;;;;;;13.22;100.00;99698.25;2098750;28;20194;-73
2022/06/18 04:22:04;;;;;;;27.83;25.02;;;;;;;13.22;100.00;99708.19;2100099;28;20650;-73
2022/06/18 04:23:22;;;;;;;27.38;24.48;;;;;;;13.28;100.00;99706.97;2107567;28;20193;-73
2022/06/18 04:24:23;;;;;;;27.55;24.65;;;;;;;13.32;100.00;99705.28;2107458;28;20201;-74
2022/06/18 04:25:27;;;;;;;27.27;24.48;;;;;;;13.35;100.00;99712.72;2099464;28;20200;-73
2022/06/18 04:26:28;;;;;;;27.70;24.73;;;;;;;13.36;100.00;99708.94;2099108;28;20194;-73
2022/06/18 04:27:30;;;;;;;26.38;23.77;;;;;;;13.43;100.00;99709.34;2107538;28;20712;-73
2022/06/18 04:28:32;;;;;;;27.63;24.73;;;;;;;13.48;100.00;99711.16;2107438;28;20519;-72
2022/06/18 04:29:48;;;;;;;27.98;25.35;;;;;;;13.49;100.00;99713.53;2107449;28;20707;-73
2022/06/18 04:30:49;;;;;;;26.83;24.35;;;;;;;13.49;100.00;99708.16;2099113;28;20201;-73
2022/06/18 04:32:00;;;;;;;27.17;24.40;;;;;;;13.52;100.00;99704.88;2107454;28;20189;-73
2022/06/18 04:33:04;;;;;;;27.60;25.10;;;;;;;13.60;100.00;99705.28;2099358;28;20198;-73
2022/06/18 04:34:14;;;;;;;26.98;24.20;;;;;;;13.64;100.00;99708.94;2100474;28;20557;-73
2022/06/18 04:35:45;;;;;;;26.92;24.42;;;;;;;13.74;100.00;99714.91;2107759;28;20166;-73
2022/06/18 04:36:50;;;;;;;28.15;25.33;;;;;;;13.81;100.00;99709.94;2107084;28;20225;-73
2022/06/18 04:38:13;;;;;;;27.73;24.45;;;;;;;13.85;100.00;99710.91;2107328;28;20198;-73
2022/06/18 04:39:29;;;;;;;27.58;24.23;;;;;;;13.86;100.00;99699.06;2107767;28;20206;-74
2022/06/18 04:40:49;;;;;;;26.52;24.05;;;;;;;13.89;100.00;99699.56;2108226;28;20166;-73
2022/06/18 04:41:55;;;;;;;26.30;23.80;;;;;;;13.93;100.00;99706.72;2107409;28;20300;-73
2022/06/18 04:43:00;;;;;;;26.40;24.05;;;;;;;13.98;100.00;99703.09;2107327;28;20231;-73
2022/06/18 04:44:02;;;;;;;26.47;24.13;;;;;;;13.99;100.00;99702.81;2107503;28;20202;-73
2022/06/18 04:45:03;;;;;;;25.70;23.45;;;;;;;14.02;100.00;99709.47;2107307;28;20539;-73
2022/06/18 04:46:22;;;;;;;27.83;24.85;;;;;;;14.06;100.00;99711.22;2101451;28;20666;-73
2022/06/18 04:47:26;;;;;;;26.05;23.65;;;;;;;14.05;100.00;99711.53;2107283;28;20314;-73
2022/06/18 04:48:30;;;;;;;26.63;24.02;;;;;;;14.08;100.00;99709.06;2107285;28;20196;-73
2022/06/18 04:49:30;;;;;;;25.20;22.90;;;;;;;14.12;100.00;99710.03;2099335;28;20194;-73
2022/06/18 04:50:35;;;;;;;26.13;23.73;;;;;;;14.14;100.00;99709.72;2098837;28;20198;-73
2022/06/18 04:51:35;;;;;;;25.70;23.27;;;;;;;14.17;100.00;99706.44;2098951;28;20233;-73
2022/06/18 04:52:38;;;;;;;25.05;22.65;;;;;;;14.22;100.00;99700.94;2098926;28;20285;-73
2022/06/18 04:53:40;;;;;;;25.67;23.27;;;;;;;14.27;100.00;99705.41;2107211;28;20193;-73
2022/06/18 04:54:45;;;;;;;26.40;23.88;;;;;;;14.33;100.00;99704.19;2099410;28;20621;-73
2022/06/18 04:55:46;;;;;;;25.27;23.17;;;;;;;14.36;100.00;99704.38;2099005;28;20224;-73
2022/06/18 04:56:48;;;;;;;26.10;23.73;;;;;;;14.36;100.00;99706.28;2098802;28;20218;-73
2022/06/18 04:57:49;;;;;;;26.25;24.05;;;;;;;14.41;100.00;99708.81;2107372;28;20190;-73
2022/06/18 04:58:51;;;;;;;25.63;23.13;;;;;;;14.42;100.00;99699.66;2107122;28;20194;-73
2022/06/18 04:59:52;;;;;;;26.10;23.60;;;;;;;14.51;100.00;99700.56;2107174;28;20538;-73